Latest Coastal Weather Observations for Kalumburu

IDW60701

Issued at 6:53 pm WST Tuesday 17 January 2017 (issued every 10 minutes, with the page automatically refreshed every 10 minutes)

About coastal observations | Map of coastal stations | Coastal observations for WA | Marine services | Other Formats
Station Details ID: 001019 Name: KALUMBURU Lat: -14.30 Lon: 126.65 Height: 23.0 m
Data from the previous 72 hours. | See also: Recent months at Kalumburu
Date/Time
WST
Temp
°C
Wind Pressure Rain since
9am
mm
Weather Cloud Vis
km
Sea
Height
m
Swell
Dir  Spd
kts
Gust
kts
hPa Trend Height
m
Period
s
Dir
17/06:30pm 26.9 E 3 4 1007.7 - 4.2 - - - - - - -
17/06:00pm 27.4 NE 2 4 1007.3 - 4.2 - - - - - - -
17/05:30pm 28.0 NW 5 7 1006.4 - 4.2 - - - - - - -
17/05:00pm 30.0 WNW 3 6 1006.1 - 4.2 - - - - - - -
17/04:30pm 30.1 W 4 9 1005.6 - 4.2 - - - - - - -
17/04:00pm 30.3 WNW 5 8 1005.3 - 4.2 - - - - - - -
17/03:30pm 29.9 W 4 7 1005.0 - 4.2 - - - - - - -
17/03:00pm 29.4 NW 5 8 1005.4 - 4.2 - - - - - - -
17/02:30pm 29.1 NW 5 8 1005.2 - 4.2 - - - - - - -
17/02:00pm 28.7 NNW 6 7 1005.8 - 4.2 - - - - - - -
17/01:30pm 28.4 NNW 5 7 1006.2 - 4.2 - - - - - - -
17/01:00pm 28.0 N 4 5 1006.7 - 4.2 - - - - - - -
17/12:30pm 27.7 NNW 1 3 1007.4 - 4.2 - - - - - - -
17/12:00pm 26.6 N 6 9 1007.5 - 4.2 Recent precip. - - - - - -
17/11:30am 27.1 NW 15 23 1007.6 - 0.0 - - - - - - -
17/11:21am 30.0 NW 15 23 1007.5 - 0.0 - - - - - - -
17/11:00am 31.8 NW 6 10 1007.4 - 0.0 - - - - - - -
17/10:30am 31.3 NW 5 8 1007.5 - 0.0 - - - - - - -
17/10:00am 31.0 WNW 5 10 1007.6 - 0.0 - - - - - - -
17/09:30am 31.3 WNW 3 6 1007.8 - 0.0 - - - - - - -
17/09:00am 31.2 NNW 3 6 1008.1 - 0.0 - - - - - - -
17/08:30am 31.0 WNW 2 5 1007.9 - 0.0 - - - - - - -
17/08:00am 29.9 N 3 4 1008.1 - 0.0 - - - - - - -
17/07:30am 29.6 S 3 4 1008.0 - 0.0 - - - - - - -
17/07:00am 29.3 S 1 4 1007.9 - 0.0 - - - - - - -
17/06:30am 27.9 CALM 0 0 1007.9 - 0.0 - - - - - - -
17/06:00am 26.7 CALM 0 0 1007.6 - 0.0 - - - - - - -
17/05:30am 26.4 CALM 0 0 1007.6 - 0.0 - - - - - - -
17/05:00am 26.4 CALM 0 0 1007.1 - 0.0 - - - - - - -
17/04:30am 26.2 CALM 0 0 1007.0 - 0.0 - - - - - - -
17/04:00am 26.3 CALM 0 0 1006.6 - 0.0 - - - - - - -
17/03:30am 26.3 CALM 0 0 1006.2 - 0.0 - - - - - - -
17/03:00am 26.4 SSE 3 3 1006.5 - 0.0 - - - - - - -
17/02:30am 26.3 CALM 0 0 1006.2 - 0.0 - - - - - - -
17/02:00am 26.3 CALM 0 0 1006.1 - 0.0 - - - - - - -
17/01:30am 26.4 CALM 0 0 1006.3 - 0.0 - - - - - - -
17/01:00am 26.4 CALM 0 0 1006.4 - 0.0 - - - - - - -
17/12:30am 26.6 CALM 0 0 1006.4 - 0.0 - - - - - - -
17/12:00am 26.8 CALM 0 0 1006.7 - 0.0 - - - - - - -
 
Date/Time
WST
Temp
°C
Wind Pressure Rain since
9am
mm
Weather Cloud Vis
km
Sea
Height
m
Swell
Dir  Spd
kts
Gust
kts
hPa Trend Height
m
Period
s
Dir
16/11:30pm 26.8 CALM 0 4 1007.3 - 0.0 - - - - - - -
16/11:00pm 27.5 CALM 0 0 1007.5 - 0.0 - - - - - - -
16/10:30pm 28.1 WNW 3 4 1007.7 - 0.0 - - - - - - -
16/10:00pm 28.2 NW 5 7 1007.7 - 0.0 - - - - - - -
16/09:30pm 28.3 NW 5 6 1007.7 - 0.0 - - - - - - -
16/09:00pm 28.3 NW 5 8 1007.7 - 0.0 - - - - - - -
16/08:30pm 28.6 NW 5 8 1007.8 - 0.0 - - - - - - -
16/08:00pm 28.8 NW 6 9 1007.6 - 0.0 - - - - - - -
16/07:30pm 28.9 NW 6 8 1007.1 - 0.0 - - - - - - -
16/07:00pm 29.1 NW 6 9 1006.7 - 0.0 - - - - - - -
16/06:30pm 29.2 NW 7 11 1006.4 - 0.0 - - - - - - -
16/06:00pm 29.6 WNW 5 10 1005.9 - 0.0 - - - - - - -
16/05:30pm 30.3 WNW 7 11 1005.7 - 0.0 - - - - - - -
16/05:00pm 30.8 NW 8 13 1005.6 - 0.0 - - - - - - -
16/04:30pm 31.2 NW 9 12 1005.3 - 0.0 - - - - - - -
16/04:00pm 31.5 NNW 7 10 1005.1 - 0.0 - - - - - - -
16/03:30pm 31.9 NW 8 11 1005.1 - 0.0 - - - - - - -
16/03:00pm 32.3 WNW 8 14 1005.0 - 0.0 - - - - - - -
16/02:30pm 32.3 WNW 7 12 1005.1 - 0.0 - - - - - - -
16/02:00pm 32.2 N 7 11 1005.3 - 0.0 - - - - - - -
16/01:30pm 32.3 NNW 7 12 1005.6 - 0.0 - - - - - - -
16/01:00pm 33.8 WNW 3 5 1006.1 - 0.0 - - - - - - -
16/12:30pm 34.4 W 5 8 1006.5 - 0.0 - - - - - - -
16/12:00pm 33.8 WNW 5 7 1006.7 - 0.0 - - - - - - -
16/11:30am 34.0 WSW 5 10 1006.9 - 0.0 - - - - - - -
16/11:00am 33.5 WNW 5 8 1007.3 - 0.0 - - - - - - -
16/10:30am 33.5 W 6 8 1007.8 - 0.0 - - - - - - -
16/10:00am 32.7 WNW 4 8 1008.2 - 0.0 - - - - - - -
16/09:30am 32.2 WNW 5 9 1008.5 - 0.0 - - - - - - -
16/09:00am 32.5 W 4 8 1009.0 - 0.0 - - - - - - -
16/08:30am 31.3 W 6 9 1009.1 - 0.0 - - - - - - -
16/08:00am 30.9 SW 4 7 1009.1 - 0.0 - - - - - - -
16/07:30am 30.2 WSW 6 9 1009.0 - 0.0 - - - - - - -
16/07:00am 29.2 SSW 4 6 1008.9 - 0.0 - - - - - - -
16/06:30am 28.2 SW 3 5 1008.7 - 0.0 - - - - - - -
16/06:00am 26.6 CALM 0 0 1008.4 - 0.0 - - - - - - -
16/05:30am 25.5 CALM 0 0 1008.1 - 0.0 - - - - - - -
16/05:00am 25.5 CALM 0 0 1007.7 - 0.0 - - - - - - -
16/04:30am 25.7 CALM 0 0 1007.5 - 0.0 - - - - - - -
16/04:00am 25.5 CALM 0 0 1007.0 - 0.0 - - - - - - -
16/03:30am 25.6 CALM 0 0 1006.7 - 0.0 - - - - - - -
16/03:00am 25.7 W 1 4 1006.5 - 0.0 - - - - - - -
16/02:30am 25.6 CALM 0 0 1006.6 - 0.0 - - - - - - -
16/02:00am 25.9 CALM 0 0 1006.9 - 0.0 - - - - - - -
16/01:30am 26.0 CALM 0 0 1007.1 - 0.0 - - - - - - -
16/01:00am 26.0 CALM 0 0 1007.5 - 0.0 - - - - - - -
16/12:30am 26.3 CALM 0 0 1007.6 - 0.0 - - - - - - -
16/12:00am 26.9 CALM 0 0 1007.8 - 0.0 - - - - - - -
 
Date/Time
WST
Temp
°C
Wind Pressure Rain since
9am
mm
Weather Cloud Vis
km
Sea
Height
m
Swell
Dir  Spd
kts
Gust
kts
hPa Trend Height
m
Period
s
Dir
15/11:30pm 26.7 CALM 0 0 1008.0 - 0.0 - - - - - - -
15/11:00pm 26.9 CALM 0 0 1008.2 - 0.0 - - - - - - -
15/10:30pm 27.2 CALM 0 0 1008.5 - 0.0 - - - - - - -
15/10:00pm 27.7 CALM 0 2 1008.3 - 0.0 - - - - - - -
15/09:30pm 28.3 WNW 3 5 1008.2 - 0.0 - - - - - - -
15/09:00pm 28.2 WNW 3 4 1008.3 - 0.0 - - - - - - -
15/08:30pm 28.6 WNW 4 6 1008.3 - 0.0 - - - - - - -
15/08:00pm 28.8 WNW 4 8 1008.0 - 0.0 - - - - - - -
15/07:30pm 29.1 WNW 5 9 1007.8 - 0.0 - - - - - - -
15/07:00pm 29.5 WNW 5 8 1007.6 - 0.0 - - - - - - -
15/06:30pm 29.6 NW 6 9 1007.0 - 0.0 - - - - - - -
15/06:00pm 30.2 WNW 5 9 1006.9 - 0.0 - - - - - - -
15/05:30pm 30.7 WNW 6 10 1006.3 - 0.0 - - - - - - -
15/05:00pm 30.6 NNW 5 9 1005.9 - 0.0 - - - - - - -
15/04:30pm 30.8 NNW 6 11 1005.8 - 0.0 - - - - - - -
15/04:00pm 31.5 NW 5 8 1006.0 - 0.0 - - - - - - -
15/03:30pm 32.0 W 5 7 1006.1 - 0.0 - - - - - - -
15/03:00pm 32.2 W 6 10 1006.3 - 0.0 - - - - - - -
15/02:30pm 30.8 WNW 7 13 1006.6 - 0.0 - - - - - - -
15/02:00pm 31.5 NNW 11 16 1006.5 - 0.0 - - - - - - -
15/01:30pm 33.0 NNW 9 13 1006.7 - 0.0 - - - - - - -
15/01:00pm 33.9 NNW 8 12 1007.0 - 0.0 - - - - - - -
15/12:30pm 33.7 NW 7 11 1007.4 - 0.0 - - - - - - -
15/12:00pm 35.1 SW 3 6 1007.5 - 0.0 - - - - - - -
15/11:30am 34.0 W 4 7 1007.8 - 0.0 - - - - - - -
15/11:00am 33.9 NNW 3 5 1008.3 - 0.0 - - - - - - -
15/10:30am 32.9 CALM 0 3 1008.6 - 0.0 - - - - - - -
15/10:00am 33.0 SSW 4 7 1008.9 - 0.0 - - - - - - -
15/09:30am 32.7 ENE 3 6 1009.0 - 0.0 - - - - - - -
15/09:00am 32.1 SW 4 5 1009.4 - 0.0 - - - - - - -
15/08:30am 31.2 N 3 6 1009.6 - 0.0 - - - - - - -
15/08:00am 30.5 WSW 1 4 1009.6 - 0.0 - - - - - - -
15/07:30am 30.2 SW 3 5 1009.4 - 0.0 - - - - - - -
15/07:00am 28.8 W 1 4 1009.4 - 0.0 - - - - - - -
15/06:30am 27.6 CALM 0 0 1009.2 - 0.0 - - - - - - -
15/06:00am 26.1 CALM 0 0 1009.2 - 0.0 - - - - - - -
15/05:30am 25.7 CALM 0 0 1008.9 - 0.0 - - - - - - -
15/05:00am 25.7 CALM 0 0 1008.6 - 0.0 - - - - - - -
15/04:30am 25.7 CALM 0 0 1008.4 - 0.0 - - - - - - -
15/04:00am 25.6 CALM 0 0 1007.9 - 0.0 - - - - - - -
15/03:30am 25.8 CALM 0 0 1007.8 - 0.0 - - - - - - -
15/03:00am 25.9 CALM 0 0 1007.5 - 0.0 - - - - - - -
15/02:30am 26.1 CALM 0 0 1007.6 - 0.0 - - - - - - -
15/02:00am 26.1 CALM 0 0 1007.9 - 0.0 - - - - - - -
15/01:30am 26.0 CALM 0 0 1008.0 - 0.0 - - - - - - -
15/01:00am 26.3 CALM 0 0 1007.8 - 0.0 - - - - - - -
15/12:30am 26.5 CALM 0 0 1008.2 - 0.0 - - - - - - -
15/12:00am 26.7 CALM 0 0 1008.4 - 0.0 - - - - - - -
 
Date/Time
WST
Temp
°C
Wind Pressure Rain since
9am
mm
Weather Cloud Vis
km
Sea
Height
m
Swell
Dir  Spd
kts
Gust
kts
hPa Trend Height
m
Period
s
Dir
14/11:30pm 26.8 CALM 0 0 1008.6 - 0.0 - - - - - - -
14/11:00pm 26.9 CALM 0 0 1008.7 - 0.0 - - - - - - -
14/10:30pm 27.1 NW 1 4 1008.7 - 0.0 - - - - - - -
14/10:00pm 27.2 CALM 0 0 1009.0 - 0.0 - - - - - - -
14/09:30pm 27.5 CALM 0 0 1009.2 - 0.0 - - - - - - -
14/09:00pm 27.8 NW 3 4 1009.0 - 0.0 - - - - - - -
14/08:30pm 28.2 NW 3 5 1008.6 - 0.0 - - - - - - -
14/08:00pm 28.4 NW 4 5 1008.2 - 0.0 - - - - - - -
14/07:30pm 28.6 NW 4 6 1007.7 - 0.0 - - - - - - -
14/07:00pm 28.9 WNW 5 8 1007.3 - 0.0 - - - - - - -

Other Formats:

Comma delimited format used in spreadsheet applications
http://www.bom.gov.au/fwo/IDW60701/IDW60701.94100.axf

JavaScript Object Notation format (JSON) in row-major order
http://www.bom.gov.au/fwo/IDW60701/IDW60701.94100.json